createdAt,value
2022-12-24T00:03:55.727Z,99838.38
2022-12-24T00:08:57.852Z,99845.47
2022-12-24T00:14:01.902Z,99839.28
2022-12-24T00:19:04.100Z,99849.88
2022-12-24T00:24:07.089Z,99861.22
2022-12-24T00:29:11.071Z,99856.00
2022-12-24T00:34:13.363Z,99864.75
2022-12-24T00:39:15.426Z,99860.41
2022-12-24T00:44:18.524Z,99856.97
2022-12-24T00:49:20.866Z,99859.56
2022-12-24T00:54:22.788Z,99866.59
2022-12-24T00:59:26.452Z,99874.53
2022-12-24T01:04:28.551Z,99875.41
2022-12-24T01:09:30.761Z,99893.84
2022-12-24T01:14:33.807Z,99892.09
2022-12-24T01:19:35.849Z,99896.50
2022-12-24T01:24:39.959Z,99898.25
2022-12-24T01:29:43.489Z,99909.66
2022-12-24T01:34:45.569Z,99919.31
2022-12-24T01:39:47.437Z,99924.59
2022-12-24T01:44:52.154Z,99934.22
2022-12-24T01:49:59.616Z,99926.38
2022-12-24T01:55:06.826Z,99937.72
2022-12-24T02:00:13.938Z,99943.00
2022-12-24T02:05:22.495Z,99971.06
2022-12-24T02:10:25.005Z,99974.56
2022-12-24T02:15:31.993Z,99978.97
2022-12-24T02:21:05.274Z,99988.59
2022-12-24T02:26:33.516Z,99998.22
2022-12-24T02:31:41.955Z,100011.34
2022-12-24T02:36:49.048Z,100020.16
2022-12-24T02:41:56.095Z,100020.22
2022-12-24T02:47:01.170Z,100025.41
2022-12-24T02:52:04.002Z,100031.53
2022-12-24T02:57:12.921Z,100035.94
2022-12-24T03:02:27.048Z,100037.72
2022-12-24T03:07:35.189Z,100045.63
2022-12-24T03:12:41.883Z,100045.63
2022-12-24T03:17:48.048Z,100044.75
2022-12-24T03:22:50.536Z,100055.25
2022-12-24T03:27:52.831Z,100058.75
2022-12-24T03:32:56.483Z,100062.28
2022-12-24T03:37:58.526Z,100078.97
2022-12-24T03:43:00.591Z,100076.31
2022-12-24T03:48:04.229Z,100085.09
2022-12-24T03:53:06.512Z,100092.09
2022-12-24T03:58:08.582Z,100100.00
2022-12-24T04:03:12.488Z,100098.25
2022-12-24T04:08:14.587Z,100125.47
2022-12-24T04:13:16.771Z,100119.31
2022-12-24T04:18:20.181Z,100099.16
2022-12-24T04:23:22.870Z,100122.81
2022-12-24T04:28:24.540Z,100133.38
2022-12-24T04:33:28.772Z,100135.97
2022-12-24T04:38:31.025Z,100150.03
2022-12-24T04:43:33.714Z,100165.78
2022-12-24T04:48:37.705Z,100171.06
2022-12-24T04:53:40.559Z,100172.81
2022-12-24T04:58:43.128Z,100160.53
2022-12-24T05:03:46.827Z,100152.63
2022-12-24T05:08:48.913Z,100159.66
2022-12-24T05:13:50.938Z,100161.41
2022-12-24T05:18:54.593Z,100165.81
2022-12-24T05:23:56.860Z,100178.09
2022-12-24T05:29:00.913Z,100179.81
2022-12-24T05:34:04.423Z,100188.56
2022-12-24T05:39:11.564Z,100190.34
2022-12-24T05:44:17.937Z,100206.13
2022-12-24T05:49:21.403Z,100200.88
2022-12-24T05:54:24.241Z,100215.75
2022-12-24T05:59:26.371Z,100215.78
2022-12-24T06:04:32.480Z,100224.56
2022-12-24T06:09:34.502Z,100213.13
2022-12-24T06:14:36.798Z,100203.50
2022-12-24T06:19:41.355Z,100232.44
2022-12-24T06:24:43.700Z,100227.16
2022-12-24T06:29:45.738Z,100238.56
2022-12-24T06:34:48.855Z,100241.19
2022-12-24T06:39:51.251Z,100255.22
2022-12-24T06:44:53.247Z,100264.00
2022-12-24T06:49:57.374Z,100268.41
2022-12-24T06:54:59.114Z,100276.28
2022-12-24T07:00:01.205Z,100283.28
2022-12-24T07:05:05.723Z,100288.56
2022-12-24T07:10:10.424Z,100285.06
2022-12-24T07:15:12.831Z,100299.06
2022-12-24T07:20:15.925Z,100303.44
2022-12-24T07:25:18.497Z,100310.47
2022-12-24T07:30:20.746Z,100314.88
2022-12-24T07:35:24.207Z,100309.69
2022-12-24T07:40:26.460Z,100319.34
2022-12-24T07:45:28.554Z,100328.16
2022-12-24T07:50:31.550Z,100336.09
2022-12-24T07:55:33.299Z,100336.03
2022-12-24T08:00:35.089Z,100351.88
2022-12-24T08:05:38.732Z,100330.78
2022-12-24T08:10:41.036Z,100357.09
2022-12-24T08:15:43.697Z,100357.09
2022-12-24T08:20:47.795Z,100365.06
2022-12-24T08:25:50.169Z,100378.22
2022-12-24T08:30:52.489Z,100368.56
2022-12-24T08:35:57.438Z,100383.50
2022-12-24T08:40:59.630Z,100392.28
2022-12-24T08:46:03.182Z,100386.13
2022-12-24T08:51:09.343Z,100393.13
2022-12-24T08:56:11.868Z,100406.31
2022-12-24T09:01:15.551Z,100413.38
2022-12-24T09:06:18.979Z,100417.75
2022-12-24T09:11:20.952Z,100430.94
2022-12-24T09:16:23.115Z,100437.03
2022-12-24T09:21:26.322Z,100441.41
2022-12-24T09:26:28.288Z,100462.47
2022-12-24T09:31:30.397Z,100453.66
2022-12-24T09:36:34.401Z,100473.00
2022-12-24T09:41:45.536Z,100482.69
2022-12-24T09:46:50.192Z,100491.47
2022-12-24T09:51:59.403Z,100501.13
2022-12-24T09:57:08.068Z,100506.41
2022-12-24T10:02:12.303Z,100519.63
2022-12-24T10:07:29.930Z,100522.25
2022-12-24T10:12:37.813Z,100524.91
2022-12-24T10:17:52.809Z,100529.31
2022-12-24T10:23:03.621Z,100546.91
2022-12-24T10:28:14.328Z,100551.28
2022-12-24T10:33:19.991Z,100551.25
2022-12-24T10:38:23.106Z,100558.25
2022-12-24T10:43:28.939Z,100562.63
2022-12-24T10:48:38.245Z,100579.28
2022-12-24T10:53:47.098Z,100581.13
2022-12-24T10:58:53.065Z,100604.91
2022-12-24T11:04:01.074Z,100589.06
2022-12-24T11:09:21.853Z,100578.34
2022-12-24T11:14:25.663Z,100590.56
2022-12-24T11:19:32.840Z,100588.63
2022-12-24T11:24:38.011Z,100601.53
2022-12-24T11:29:40.173Z,100600.16
2022-12-24T11:34:44.042Z,100602.13
2022-12-24T11:39:50.398Z,100611.34
2022-12-24T11:44:54.810Z,100613.72
2022-12-24T11:50:20.057Z,100614.97
2022-12-24T11:55:40.012Z,100611.88
2022-12-24T12:00:43.859Z,100618.91
2022-12-24T12:05:45.722Z,100606.69
2022-12-24T12:10:51.529Z,100609.34
2022-12-24T12:16:05.298Z,100621.78
2022-12-24T12:21:14.718Z,100629.78
2022-12-24T12:26:23.429Z,100638.59
2022-12-24T12:31:32.602Z,100642.09
2022-12-24T12:36:40.543Z,100649.75
2022-12-24T12:41:55.279Z,100651.41
2022-12-24T12:47:13.877Z,100660.09
2022-12-24T12:52:38.290Z,100650.38
2022-12-24T12:57:41.575Z,100669.81
2022-12-24T13:03:21.118Z,100669.00
2022-12-24T13:08:42.983Z,100673.50
2022-12-24T13:14:03.381Z,100674.44
2022-12-24T13:19:19.872Z,100675.84
2022-12-24T13:24:23.754Z,100683.78
2022-12-24T13:29:42.245Z,100684.75
2022-12-24T13:34:48.955Z,100702.72
2022-12-24T13:40:21.992Z,100717.97
2022-12-24T13:45:48.920Z,100722.56
2022-12-24T13:50:54.257Z,100731.53
2022-12-24T13:56:02.588Z,100724.53
2022-12-24T14:01:11.210Z,100756.28
2022-12-24T14:06:23.230Z,100750.09
2022-12-24T14:11:28.307Z,100753.69
2022-12-24T14:16:44.184Z,100755.44
2022-12-24T14:21:55.377Z,100759.00
2022-12-24T14:27:00.028Z,100771.31
2022-12-24T14:32:14.344Z,100765.16
2022-12-24T14:37:16.841Z,100781.03
2022-12-24T14:42:30.923Z,100775.72
2022-12-24T14:47:41.895Z,100789.78
2022-12-24T14:53:05.979Z,100793.28
2022-12-24T14:58:24.885Z,100802.88
2022-12-24T15:03:29.749Z,100819.56
2022-12-24T15:08:36.613Z,100826.50
2022-12-24T15:13:40.400Z,100827.22
2022-12-24T15:18:48.152Z,100837.63
2022-12-24T15:23:51.918Z,100849.03
2022-12-24T15:29:02.370Z,100856.16
2022-12-24T15:34:06.764Z,100855.31
2022-12-24T15:39:16.345Z,100868.47
2022-12-24T15:44:18.885Z,100867.84
2022-12-24T15:49:23.796Z,100873.19
2022-12-24T15:54:25.979Z,100872.38
2022-12-24T15:59:30.906Z,100875.88
2022-12-24T16:04:34.010Z,100896.94
2022-12-24T16:09:45.133Z,100895.13
2022-12-24T16:14:52.517Z,100896.81
2022-12-24T16:20:00.504Z,100907.31
2022-12-24T16:25:21.745Z,100912.56
2022-12-24T16:30:23.445Z,100910.72
2022-12-24T16:35:30.401Z,100909.66
2022-12-24T16:40:32.181Z,100922.56
2022-12-24T16:45:36.263Z,100927.75
2022-12-24T16:50:39.437Z,100919.78
2022-12-24T16:55:41.751Z,100941.59
2022-12-24T17:00:44.312Z,100932.97
2022-12-24T17:05:47.438Z,100948.66
2022-12-24T17:10:52.929Z,100949.59
2022-12-24T17:15:55.129Z,100951.59
2022-12-24T17:20:59.509Z,100951.75
2022-12-24T17:26:02.604Z,100953.31
2022-12-24T17:31:08.481Z,100968.34
2022-12-24T17:36:11.728Z,100965.94
2022-12-24T17:41:16.149Z,100974.19
2022-12-24T17:46:20.003Z,100974.41
2022-12-24T17:51:23.816Z,100974.47
2022-12-24T17:56:26.473Z,100987.72
2022-12-24T18:01:29.196Z,100989.44
2022-12-24T18:06:32.893Z,101007.94
2022-12-24T18:11:37.285Z,101018.53
2022-12-24T18:16:40.514Z,101027.38
2022-12-24T18:21:44.462Z,101030.03
2022-12-24T18:26:46.827Z,101038.84
2022-12-24T18:31:48.676Z,101023.91
2022-12-24T18:36:55.422Z,101037.03
2022-12-24T18:41:57.527Z,101044.06
2022-12-24T18:46:59.709Z,101047.56
2022-12-24T18:52:05.075Z,101060.66
2022-12-24T18:57:07.018Z,101049.91
2022-12-24T19:02:10.621Z,101060.28
2022-12-24T19:07:13.807Z,101069.78
2022-12-24T19:12:16.272Z,101069.59
2022-12-24T19:17:18.286Z,101071.47
2022-12-24T19:22:21.663Z,101074.13
2022-12-24T19:27:23.355Z,101071.38
2022-12-24T19:32:25.026Z,101079.06
2022-12-24T19:37:29.875Z,101083.09
2022-12-24T19:42:31.868Z,101096.38
2022-12-24T19:47:33.909Z,101104.38
2022-12-24T19:52:37.455Z,101106.34
2022-12-24T19:57:39.417Z,101116.09
2022-12-24T20:02:41.625Z,101109.03
2022-12-24T20:07:44.897Z,101109.09
2022-12-24T20:12:46.608Z,101112.56
2022-12-24T20:17:48.295Z,101114.31
2022-12-24T20:22:51.667Z,101113.38
2022-12-24T20:27:53.524Z,101117.66
2022-12-24T20:32:56.175Z,101112.19
2022-12-24T20:37:59.305Z,101111.91
2022-12-24T20:43:01.438Z,101117.13
2022-12-24T20:48:03.962Z,101119.00
2022-12-24T20:53:07.507Z,101130.63
2022-12-24T20:58:11.650Z,101131.50
2022-12-24T21:03:13.673Z,101135.16
2022-12-24T21:08:17.764Z,101148.44
2022-12-24T21:13:20.588Z,101137.94
2022-12-24T21:18:22.641Z,101150.34
2022-12-24T21:23:26.561Z,101154.81
2022-12-24T21:28:28.710Z,101161.84
2022-12-24T21:33:36.229Z,101160.94
2022-12-24T21:38:42.425Z,101156.47
2022-12-24T21:43:45.095Z,101175.88
2022-12-24T21:48:47.105Z,101180.25
2022-12-24T21:53:50.639Z,101197.88
2022-12-24T21:58:52.671Z,101192.50
2022-12-24T22:03:54.537Z,101205.69
2022-12-24T22:08:58.057Z,101205.75
2022-12-24T22:14:00.720Z,101210.09
2022-12-24T22:19:02.558Z,101214.44
2022-12-24T22:24:07.471Z,101210.84
2022-12-24T22:29:09.490Z,101210.69
2022-12-24T22:34:11.433Z,101214.91
2022-12-24T22:39:14.672Z,101224.38
2022-12-24T22:44:17.003Z,101228.50
2022-12-24T22:49:19.183Z,101233.53
2022-12-24T22:54:22.760Z,101241.06
2022-12-24T22:59:25.093Z,101248.75
2022-12-24T23:04:26.920Z,101258.28
2022-12-24T23:09:30.684Z,101263.06
2022-12-24T23:14:33.261Z,101255.63
2022-12-24T23:19:35.247Z,101261.28
2022-12-24T23:24:38.812Z,101266.19
2022-12-24T23:29:40.728Z,101269.22
2022-12-24T23:34:43.079Z,101261.03
2022-12-24T23:39:46.636Z,101250.66
2022-12-24T23:44:48.674Z,101258.72
2022-12-24T23:49:50.781Z,101258.84
2022-12-24T23:54:54.280Z,101255.94
2022-12-24T23:59:56.058Z,101264.50
